首页
METAR-TAF:

METAR-TAF

机场 :

雅基馬, 华盛顿, 美国

纬度: 46-33-51N, 经度: 120-32-01W, 海拔: 333米

当前天气观测

该预报发布于1小时和22分钟前的14:53 UTC
风速4节,风向多变
温度 7°C
湿度 49%
气压 1019 hPa
能見度: 16.1公里
天空无云

METAR: KYKM 131453Z VRB04KT 10SM CLR 07/M03 A3009 RMK AO2 SLP196 T00721033 56011

时间: 08:15 (16:15 UTC)

预报

该预报发布于4小时和55分钟前的11:20 UTC
预报有效从13日的 12点(UTC)到 14日的 12点(UTC)
风速5节,风向西
能見度: 10公里
多云层高于12000英尺
阴天层高于20000英尺
从 13日的 1800点(UTC)
风速6节,风向西南
能見度: 10公里
散云层高于10000英尺
多云层高于20000英尺
从 14日的 0600点(UTC)
风速6节,风向
能見度: 10公里
少量云层高于15000英尺
散云层高于25000英尺

TAF: KYKM 131120Z 1312/1412 26005KT P6SM BKN120 OVC200 FM131800 23006KT P6SM SCT100 BKN200 FM140600 17006KT P6SM FEW150 SCT250

超过4000个机场的气象观测和天气预报(METAR&TAF报告)。

可查询的气象台以黄色和红色小点在地图上表示。

将鼠标移到小点上方,可查看气象台名称。

然后点击查看天气观测和预报。

如需切换地图:点击带黑十字的绿色按钮放大地图;点击带横线的绿色按钮缩小地图;或者点击绿色箭头查看邻近地区的地图。


METAR-TAF: